VIA003 SVMI-SKBO
Flight info
| Callsign | VIA003 |
|---|---|
| Flight time | 1h 24m |
| Altitude | 34000 |
| Route | MARES1 MARES A315 ATONO G427 PBL UP533 KIKAS UW44 PUKEN UW44 BUV A567 GEPSO/N0520F240 A567 VULAM VULA6D |
| Aircraft | MD11/H-SDE1FGHIJ1RWXYZ/LB1 |
Departure
| Time | 2025-10-08 14:43 |
|---|---|
| Airport | Maiquetía Simón Bolívar International Airport (SVMI) |
Arrival
| Time | 2025-10-08 16:08 |
|---|---|
| Airport | El Dorado International Airport (SKBO) |
| Time | Latitude | Longitude | Altitude | Speed | Heading |
|---|---|---|---|---|---|
| 2025-10-08 14:24 | 10.60108 | -67.00614 | 366 ft | 0 kts | 358° |
| 2025-10-08 14:33 | 10.60065 | -67.00613 | 379 ft | 2 kts | 358° |
| 2025-10-08 14:33 | 10.60035 | -67.00611 | 379 ft | 2 kts | 358° |
| 2025-10-08 14:34 | 10.60006 | -67.00615 | 379 ft | 2 kts | 35° |
| 2025-10-08 14:34 | 10.59991 | -67.00639 | 379 ft | 1 kts | 86° |
| 2025-10-08 14:38 | 10.59996 | -67.00495 | 381 ft | 11 kts | 88° |
| 2025-10-08 14:39 | 10.60012 | -67.00318 | 382 ft | 12 kts | 49° |
| 2025-10-08 14:40 | 10.60121 | -67.00015 | 377 ft | 22 kts | 87° |
| 2025-10-08 14:40 | 10.60131 | -66.99845 | 372 ft | 26 kts | 85° |
| 2025-10-08 14:40 | 10.60028 | -66.99670 | 370 ft | 16 kts | 178° |
| 2025-10-08 14:41 | 10.59912 | -66.99596 | 372 ft | 13 kts | 77° |
| 2025-10-08 14:41 | 10.60119 | -66.98756 | 323 ft | 129 kts | 76° |
| 2025-10-08 14:42 | 10.60679 | -66.96420 | 753 ft | 182 kts | 77° |
| 2025-10-08 14:42 | 10.62102 | -66.94209 | 1504 ft | 207 kts | 23° |
| 2025-10-08 14:43 | 10.65003 | -66.94728 | 2294 ft | 239 kts | 318° |
| 2025-10-08 14:43 | 10.66039 | -66.97900 | 3380 ft | 255 kts | 264° |
| 2025-10-08 14:44 | 10.65629 | -67.01676 | 4121 ft | 278 kts | 268° |
| 2025-10-08 14:44 | 10.66072 | -67.05613 | 5535 ft | 283 kts | 292° |
| 2025-10-08 14:45 | 10.68325 | -67.08878 | 6989 ft | 289 kts | 313° |
| 2025-10-08 14:45 | 10.71149 | -67.11911 | 8317 ft | 300 kts | 312° |
| 2025-10-08 14:46 | 10.73901 | -67.15120 | 9670 ft | 306 kts | 310° |
| 2025-10-08 14:46 | 10.76604 | -67.18523 | 10860 ft | 319 kts | 304° |
| 2025-10-08 14:47 | 10.78210 | -67.22737 | 12089 ft | 336 kts | 274° |
| 2025-10-08 14:48 | 10.76025 | -67.30184 | 12664 ft | 408 kts | 245° |
| 2025-10-08 14:48 | 10.74873 | -67.32945 | 13005 ft | 428 kts | 248° |
| 2025-10-08 14:48 | 10.72762 | -67.38688 | 14521 ft | 443 kts | 250° |
| 2025-10-08 14:49 | 10.70698 | -67.44653 | 16027 ft | 454 kts | 250° |
| 2025-10-08 14:49 | 10.68566 | -67.50733 | 17612 ft | 463 kts | 250° |
| 2025-10-08 14:50 | 10.66383 | -67.56954 | 19010 ft | 472 kts | 250° |
| 2025-10-08 14:50 | 10.64179 | -67.63254 | 20519 ft | 478 kts | 250° |
| 2025-10-08 14:51 | 10.63047 | -67.66466 | 21160 ft | 482 kts | 250° |
| 2025-10-08 14:51 | 10.59648 | -67.76195 | 23208 ft | 493 kts | 250° |
| 2025-10-08 14:52 | 10.57339 | -67.82778 | 24354 ft | 500 kts | 250° |
| 2025-10-08 14:52 | 10.54998 | -67.89492 | 25711 ft | 507 kts | 250° |
| 2025-10-08 14:54 | 10.42441 | -68.14818 | 31846 ft | 497 kts | 227° |
| 2025-10-08 14:56 | 10.24390 | -68.35438 | 33334 ft | 477 kts | 227° |
| 2025-10-08 14:58 | 10.06617 | -68.55917 | 33730 ft | 483 kts | 227° |
| 2025-10-08 15:00 | 9.88841 | -68.76364 | 33991 ft | 484 kts | 227° |
| 2025-10-08 15:02 | 9.71068 | -68.96819 | 34043 ft | 483 kts | 227° |
| 2025-10-08 15:04 | 9.53264 | -69.17267 | 34031 ft | 483 kts | 227° |
| 2025-10-08 15:06 | 9.37653 | -69.35151 | 34032 ft | 483 kts | 228° |
| 2025-10-08 15:08 | 9.17602 | -69.58163 | 34026 ft | 483 kts | 227° |
| 2025-10-08 15:10 | 9.01985 | -69.76023 | 34019 ft | 484 kts | 227° |
| 2025-10-08 15:12 | 8.81859 | -69.99008 | 34024 ft | 484 kts | 227° |
| 2025-10-08 15:14 | 8.66239 | -70.16833 | 34022 ft | 484 kts | 227° |
| 2025-10-08 15:16 | 8.45773 | -70.39469 | 34028 ft | 484 kts | 226° |
| 2025-10-08 15:18 | 8.29760 | -70.57004 | 34031 ft | 484 kts | 226° |
| 2025-10-08 15:20 | 8.09222 | -70.79511 | 33989 ft | 484 kts | 226° |
| 2025-10-08 15:22 | 7.95502 | -70.94492 | 33808 ft | 483 kts | 226° |
| 2025-10-08 15:24 | 7.72602 | -71.19469 | 34188 ft | 480 kts | 225° |
| 2025-10-08 15:26 | 7.56658 | -71.36843 | 34044 ft | 483 kts | 225° |
| 2025-10-08 15:28 | 7.36065 | -71.59263 | 34022 ft | 482 kts | 225° |
| 2025-10-08 15:30 | 7.19982 | -71.76736 | 34022 ft | 482 kts | 225° |
| 2025-10-08 15:32 | 6.99550 | -71.99360 | 34028 ft | 484 kts | 229° |
| 2025-10-08 15:34 | 6.84878 | -72.18173 | 33175 ft | 482 kts | 230° |
| 2025-10-08 15:36 | 6.66031 | -72.42324 | 32612 ft | 487 kts | 230° |
| 2025-10-08 15:38 | 6.55586 | -72.55711 | 32627 ft | 488 kts | 230° |
| 2025-10-08 15:40 | 6.36471 | -72.80186 | 32271 ft | 490 kts | 230° |
| 2025-10-08 15:42 | 6.21600 | -72.99104 | 32237 ft | 492 kts | 230° |
| 2025-10-08 15:44 | 6.02344 | -73.23554 | 32443 ft | 494 kts | 230° |
| 2025-10-08 15:46 | 5.87364 | -73.42569 | 32948 ft | 485 kts | 230° |
| 2025-10-08 15:48 | 5.68115 | -73.66985 | 25824 ft | 502 kts | 230° |
| 2025-10-08 15:49 | 5.63794 | -73.72460 | 24165 ft | 498 kts | 231° |
| 2025-10-08 15:49 | 5.61605 | -73.75231 | 23497 ft | 495 kts | 231° |
| 2025-10-08 15:50 | 5.57371 | -73.80595 | 21982 ft | 487 kts | 231° |
| 2025-10-08 15:50 | 5.53402 | -73.86089 | 20777 ft | 479 kts | 238° |
| 2025-10-08 15:51 | 5.50372 | -73.91981 | 19683 ft | 468 kts | 245° |
| 2025-10-08 15:51 | 5.46424 | -74.00883 | 17968 ft | 463 kts | 245° |
| 2025-10-08 15:52 | 5.43744 | -74.06761 | 16906 ft | 464 kts | 245° |
| 2025-10-08 15:52 | 5.41050 | -74.12647 | 15940 ft | 455 kts | 244° |
| 2025-10-08 15:53 | 5.39742 | -74.15520 | 15491 ft | 447 kts | 244° |
| 2025-10-08 15:53 | 5.37179 | -74.21126 | 14701 ft | 433 kts | 244° |
| 2025-10-08 15:54 | 5.33479 | -74.29237 | 13438 ft | 418 kts | 244° |
| 2025-10-08 15:54 | 5.31076 | -74.34509 | 12661 ft | 410 kts | 245° |
| 2025-10-08 15:55 | 5.28126 | -74.39284 | 12078 ft | 390 kts | 226° |
| 2025-10-08 15:56 | 5.22101 | -74.44009 | 11992 ft | 343 kts | 214° |
| 2025-10-08 15:56 | 5.18348 | -74.46706 | 11975 ft | 317 kts | 216° |
| 2025-10-08 15:56 | 5.16617 | -74.48000 | 11977 ft | 309 kts | 216° |
| 2025-10-08 15:57 | 5.13231 | -74.50568 | 11988 ft | 295 kts | 216° |
| 2025-10-08 15:57 | 5.09668 | -74.52177 | 12014 ft | 272 kts | 179° |
| 2025-10-08 15:58 | 5.06403 | -74.50966 | 12057 ft | 248 kts | 140° |
| 2025-10-08 15:58 | 5.03772 | -74.48527 | 11963 ft | 256 kts | 136° |
| 2025-10-08 15:59 | 5.01136 | -74.46117 | 11983 ft | 256 kts | 139° |
| 2025-10-08 16:00 | 4.97015 | -74.42653 | 11979 ft | 256 kts | 140° |
| 2025-10-08 16:00 | 4.94263 | -74.40357 | 12022 ft | 256 kts | 140° |
| 2025-10-08 16:00 | 4.92922 | -74.39239 | 12006 ft | 245 kts | 140° |
| 2025-10-08 16:01 | 4.90335 | -74.37072 | 12063 ft | 244 kts | 140° |
| 2025-10-08 16:01 | 4.87715 | -74.34884 | 12014 ft | 241 kts | 140° |
| 2025-10-08 16:02 | 4.85215 | -74.32793 | 11974 ft | 227 kts | 140° |
| 2025-10-08 16:02 | 4.82800 | -74.30742 | 11716 ft | 225 kts | 139° |
| 2025-10-08 16:03 | 4.80413 | -74.28692 | 11087 ft | 224 kts | 138° |
| 2025-10-08 16:03 | 4.78334 | -74.26502 | 10465 ft | 204 kts | 128° |
| 2025-10-08 16:04 | 4.76665 | -74.24293 | 10030 ft | 190 kts | 126° |
| 2025-10-08 16:04 | 4.75102 | -74.22207 | 9667 ft | 194 kts | 128° |
| 2025-10-08 16:05 | 4.73414 | -74.20010 | 9035 ft | 193 kts | 128° |
| 2025-10-08 16:05 | 4.71831 | -74.17942 | 8543 ft | 183 kts | 128° |
| 2025-10-08 16:06 | 4.70258 | -74.15872 | 8377 ft | 178 kts | 128° |
| 2025-10-08 16:06 | 4.69343 | -74.14666 | 8381 ft | 65 kts | 126° |
| 2025-10-08 16:07 | 4.69022 | -74.14185 | 8383 ft | 19 kts | 84° |
| 2025-10-08 16:08 | 4.69104 | -74.13966 | 8384 ft | 9 kts | 86° |
| 2025-10-08 16:08 | 4.69098 | -74.13902 | 8384 ft | 8 kts | 103° |
| 2025-10-08 16:08 | 4.69035 | -74.13808 | 8384 ft | 7 kts | 129° |
| 2025-10-08 16:09 | 4.68978 | -74.13734 | 8385 ft | 6 kts | 127° |
| 2025-10-08 16:09 | 4.68932 | -74.13673 | 8385 ft | 4 kts | 127° |
| 2025-10-08 16:10 | 4.68877 | -74.13600 | 8385 ft | 10 kts | 127° |
| 2025-10-08 16:10 | 4.68866 | -74.13531 | 8385 ft | 4 kts | 16° |
| 2025-10-08 16:11 | 4.68922 | -74.13521 | 8386 ft | 3 kts | 6° |
| 2025-10-08 16:11 | 4.68934 | -74.13519 | 8386 ft | 0 kts | 6° |